Time;durP1;ratioP1;P1;durP2;ratioP2;P2;SDS_P1;SDS_P2;PMS_P1;PMS_P2;Temp;Humidity;BMP_temperature;BMP_pressure;BME280_temperature;BME280_humidity;BME280_pressure;Samples;Min_cycle;Max_cycle;Signal;HPM_P1;HPM_P2
2021/12/17 00:00:45;;;;;;;24.00;14.97;;;;;;;5.59;93.65;100213.44;5079132;28;20638;-88
2021/12/17 00:03:32;;;;;;;20.93;13.53;;;;;;;5.63;93.86;100215.09;5066924;28;20642;-89
2021/12/17 00:08:51;;;;;;;20.30;13.50;;;;;;;5.70;93.87;100207.22;5068418;28;20635;-88
2021/12/17 00:11:21;;;;;;;22.60;13.83;;;;;;;5.73;93.89;100204.59;5064920;28;20645;-89
2021/12/17 00:13:50;;;;;;;21.20;14.87;;;;;;;5.73;94.30;100207.19;5078468;28;20628;-89
2021/12/17 00:16:22;;;;;;;22.97;14.77;;;;;;;5.78;93.37;100220.09;5068276;28;20702;-89
2021/12/17 00:19:17;;;;;;;16.10;11.87;;;;;;;5.79;94.17;100208.88;5067126;28;20732;-89
2021/12/17 00:49:59;;;;;;;20.40;12.93;;;;;;;6.01;94.53;100166.19;5064873;28;20628;-89
2021/12/17 00:52:32;;;;;;;19.17;13.30;;;;;;;6.00;94.32;100167.06;5059221;28;21015;-89
2021/12/17 00:55:01;;;;;;;18.83;12.33;;;;;;;6.00;94.35;100172.25;5063855;28;20645;-89
2021/12/17 00:57:35;;;;;;;18.27;12.40;;;;;;;6.02;94.35;100170.50;5062937;28;21198;-90
2021/12/17 01:00:08;;;;;;;19.77;13.10;;;;;;;6.01;94.25;100174.81;5078644;28;20627;-89
2021/12/17 01:02:38;;;;;;;18.90;12.90;;;;;;;5.90;93.88;100187.09;5081301;28;21270;-89
2021/12/17 01:05:11;;;;;;;18.07;12.43;;;;;;;5.90;94.00;100196.59;5066482;28;20644;-89
2021/12/17 01:07:45;;;;;;;16.30;11.97;;;;;;;5.87;94.43;100188.88;5080686;28;20684;-89
2021/12/17 01:10:18;;;;;;;15.37;11.07;;;;;;;5.93;94.79;100187.03;5076056;28;21272;-89
2021/12/17 01:12:56;;;;;;;15.00;10.47;;;;;;;5.93;94.64;100201.72;5081329;28;21204;-89
2021/12/17 01:16:02;;;;;;;13.97;10.10;;;;;;;5.95;94.62;100202.53;5069184;28;20620;-89
2021/12/17 01:18:52;;;;;;;13.63;10.30;;;;;;;5.94;94.78;100193.94;5084685;28;21205;-89
2021/12/17 01:21:33;;;;;;;14.03;9.87;;;;;;;6.00;94.99;100200.72;5070012;28;20673;-89
2021/12/17 01:24:36;;;;;;;14.47;10.47;;;;;;;6.01;94.90;100192.94;5089221;28;20726;-89
2021/12/17 01:36:39;;;;;;;17.17;10.57;;;;;;;6.09;95.35;100179.00;5039497;28;20684;-90
2021/12/17 01:42:10;;;;;;;15.30;10.47;;;;;;;6.12;95.86;100181.53;5026705;28;21297;-89
2021/12/17 01:44:40;;;;;;;12.37;9.77;;;;;;;6.18;95.35;100186.59;5069337;28;20627;-89
2021/12/17 01:47:12;;;;;;;14.40;10.53;;;;;;;6.20;95.75;100196.94;5064767;28;21356;-89
2021/12/17 02:00:52;;;;;;;14.90;11.20;;;;;;;6.30;95.36;100173.44;5077906;28;20622;-89
2021/12/17 02:03:20;;;;;;;15.57;12.00;;;;;;;6.31;95.46;100164.75;5080663;28;20688;-90
2021/12/17 02:05:49;;;;;;;16.90;10.00;;;;;;;6.34;95.79;100166.44;5078765;28;20993;-90
2021/12/17 02:08:17;;;;;;;15.80;10.17;;;;;;;6.33;94.65;100162.13;5080238;28;20657;-89
2021/12/17 02:22:57;;;;;;;15.40;11.00;;;;;;;6.39;95.32;100149.06;5025462;28;20743;-89
2021/12/17 02:31:06;;;;;;;16.07;11.17;;;;;;;6.42;95.00;100157.66;5072168;28;20637;-89
2021/12/17 02:33:35;;;;;;;17.23;10.67;;;;;;;6.40;94.52;100154.22;5062842;28;21084;-88
2021/12/17 02:36:05;;;;;;;14.93;11.00;;;;;;;6.40;95.04;100151.63;5065996;28;20665;-89
2021/12/17 02:38:38;;;;;;;14.60;10.17;;;;;;;6.43;94.88;100143.81;5096095;28;20639;-88
2021/12/17 02:47:12;;;;;;;15.30;10.03;;;;;;;6.42;95.54;100155.06;5064530;28;20639;-88
2021/12/17 02:49:44;;;;;;;13.27;9.97;;;;;;;6.43;95.74;100141.22;5080986;28;20994;-89
2021/12/17 02:52:13;;;;;;;14.53;10.47;;;;;;;6.47;95.79;100142.88;5067466;28;20645;-89
2021/12/17 02:54:46;;;;;;;16.53;10.60;;;;;;;6.48;95.03;100142.00;5069192;28;21204;-89
2021/12/17 02:57:14;;;;;;;13.60;9.63;;;;;;;6.47;95.78;100134.25;5097927;28;20627;-89
2021/12/17 02:59:42;;;;;;;14.30;10.37;;;;;;;6.49;95.75;100130.72;5067896;28;20633;-89
2021/12/17 03:02:11;;;;;;;15.73;10.33;;;;;;;6.51;94.99;100135.88;5079707;28;20647;-89
2021/12/17 03:04:42;;;;;;;14.93;10.23;;;;;;;6.50;94.59;100126.41;5068196;28;21210;-89
2021/12/17 03:07:12;;;;;;;15.47;10.20;;;;;;;6.51;94.88;100125.50;5082885;28;20785;-89
2021/12/17 03:10:00;;;;;;;14.63;10.43;;;;;;;6.52;95.19;100129.81;5068781;28;21261;-88
2021/12/17 03:12:38;;;;;;;13.60;10.37;;;;;;;6.50;95.43;100137.63;5062854;28;20629;-89
2021/12/17 03:15:15;;;;;;;16.70;10.23;;;;;;;6.48;95.90;100136.81;5078417;28;20636;-88
2021/12/17 03:18:14;;;;;;;14.00;10.80;;;;;;;6.51;95.88;100134.16;5070365;28;20658;-88
2021/12/17 03:23:39;;;;;;;19.90;11.47;;;;;;;6.56;96.05;100134.91;5065156;28;20651;-89
2021/12/17 03:26:10;;;;;;;13.40;10.03;;;;;;;6.58;95.85;100133.13;5073032;28;20628;-89
2021/12/17 03:28:42;;;;;;;13.93;10.07;;;;;;;6.60;96.23;100127.06;5063370;28;20744;-89
2021/12/17 03:31:13;;;;;;;14.93;10.40;;;;;;;6.60;95.24;100134.84;5063128;28;20638;-88
2021/12/17 03:33:44;;;;;;;15.83;11.00;;;;;;;6.63;95.15;100144.25;5079868;28;20644;-89
2021/12/17 03:36:14;;;;;;;16.40;11.20;;;;;;;6.63;95.57;100146.84;5079164;28;21224;-89
2021/12/17 03:38:44;;;;;;;17.47;11.37;;;;;;;6.63;94.87;100144.25;5067598;28;21239;-89
2021/12/17 03:41:18;;;;;;;14.40;10.33;;;;;;;6.67;95.54;100153.69;5084907;28;20736;-89
2021/12/17 03:44:01;;;;;;;13.80;10.30;;;;;;;6.67;95.85;100149.34;5066669;28;20643;-89
2021/12/17 03:46:56;;;;;;;15.30;11.20;;;;;;;6.68;95.85;100150.22;5062718;28;20631;-89
2021/12/17 03:49:24;;;;;;;14.50;11.40;;;;;;;6.67;95.33;100146.75;5067586;28;20685;-89
2021/12/17 03:52:04;;;;;;;15.20;10.37;;;;;;;6.69;95.43;100150.19;5079401;28;20646;-88
2021/12/17 03:54:37;;;;;;;15.13;10.90;;;;;;;6.72;95.91;100146.66;5066147;28;21013;-89
2021/12/17 03:57:10;;;;;;;15.93;10.20;;;;;;;6.73;96.07;100143.19;5066667;28;20622;-88
2021/12/17 03:59:45;;;;;;;13.60;10.23;;;;;;;6.76;95.64;100149.16;5068247;28;20735;-89
2021/12/17 04:02:15;;;;;;;13.80;10.27;;;;;;;6.78;96.24;100149.16;5079165;28;20633;-89
2021/12/17 04:04:44;;;;;;;16.27;10.93;;;;;;;6.78;95.62;100147.44;5078571;28;20630;-89
2021/12/17 04:07:32;;;;;;;14.27;10.80;;;;;;;6.77;96.39;100137.09;5087120;28;20652;-89
2021/12/17 04:10:19;;;;;;;16.33;12.40;;;;;;;6.78;95.68;100149.16;5097926;28;20691;-89
2021/12/17 04:12:56;;;;;;;16.87;10.70;;;;;;;6.80;95.17;100145.66;5067062;28;20625;-89
2021/12/17 04:15:34;;;;;;;14.27;10.60;;;;;;;6.81;95.74;100133.53;5064924;28;20647;-89
2021/12/17 04:18:07;;;;;;;14.23;10.43;;;;;;;6.80;95.54;100116.28;5060410;28;21032;-89
2021/12/17 04:20:36;;;;;;;13.60;9.50;;;;;;;6.84;95.73;100110.13;5065518;28;20637;-89
2021/12/17 04:23:04;;;;;;;14.03;9.93;;;;;;;6.87;95.99;100110.94;5079904;28;20624;-89
2021/12/17 04:25:32;;;;;;;15.27;10.53;;;;;;;6.91;95.86;100106.53;5071382;28;20649;-89
2021/12/17 04:28:02;;;;;;;15.13;11.20;;;;;;;6.86;95.80;100121.34;5080129;28;21227;-88
2021/12/17 04:30:32;;;;;;;13.93;10.03;;;;;;;6.86;96.00;100114.41;5065864;28;20730;-89
2021/12/17 04:33:01;;;;;;;15.33;10.83;;;;;;;6.87;95.39;100116.13;5067398;28;20656;-89
2021/12/17 04:35:31;;;;;;;14.40;10.53;;;;;;;6.89;95.45;100118.69;5064162;28;20687;-89
2021/12/17 04:38:06;;;;;;;14.53;10.20;;;;;;;6.86;96.08;100129.13;5073578;28;20660;-89
2021/12/17 04:40:35;;;;;;;16.02;12.80;;;;;;;6.89;95.47;100129.06;5066779;28;21336;-89
2021/12/17 04:43:14;;;;;;;15.53;12.07;;;;;;;6.92;95.15;100123.81;5075841;28;20677;-89
2021/12/17 04:45:56;;;;;;;17.60;11.07;;;;;;;6.95;95.44;100121.97;5065415;28;20654;-89
2021/12/17 04:59:33;;;;;;;14.50;10.10;;;;;;;7.03;95.66;100106.25;5084637;28;20629;-89
2021/12/17 05:02:04;;;;;;;13.97;10.77;;;;;;;7.03;94.70;100104.50;5067081;28;20631;-89
2021/12/17 05:04:43;;;;;;;14.27;10.77;;;;;;;7.04;94.95;100112.25;5082856;28;21171;-89
2021/12/17 05:07:14;;;;;;;15.33;10.60;;;;;;;6.97;95.19;100109.00;5089358;28;20713;-88
2021/12/17 05:09:53;;;;;;;14.70;10.70;;;;;;;6.95;94.90;100098.66;5067493;28;20663;-89
2021/12/17 05:18:18;;;;;;;15.43;10.90;;;;;;;6.96;95.09;100094.31;5064801;28;21306;-89
2021/12/17 05:20:58;;;;;;;15.53;10.30;;;;;;;7.00;95.80;100094.19;5071235;28;20634;-89
2021/12/17 05:23:30;;;;;;;15.90;10.90;;;;;;;7.01;94.66;100108.03;5068941;28;20652;-89
2021/12/17 05:26:02;;;;;;;15.70;10.80;;;;;;;6.98;95.47;100102.94;5072839;28;20730;-89
2021/12/17 05:28:36;;;;;;;16.17;10.87;;;;;;;6.93;95.11;100116.00;5067597;28;22026;-89
2021/12/17 05:31:06;;;;;;;15.00;10.70;;;;;;;6.93;94.25;100110.81;5067706;28;20641;-89
2021/12/17 05:33:42;;;;;;;19.03;12.60;;;;;;;6.93;94.51;100113.41;5065273;28;20638;-89
2021/12/17 05:36:11;;;;;;;19.57;12.97;;;;;;;6.96;94.80;100115.94;5084298;28;20645;-90
2021/12/17 05:38:48;;;;;;;15.50;11.20;;;;;;;6.98;95.54;100114.13;5081488;28;20642;-89
2021/12/17 05:41:16;;;;;;;15.10;10.90;;;;;;;7.00;94.01;100101.97;5066488;28;21186;-89
2021/12/17 05:43:59;;;;;;;15.63;11.20;;;;;;;6.95;94.81;100113.38;5080177;28;20644;-89
2021/12/17 05:46:48;;;;;;;15.40;11.57;;;;;;;6.96;94.83;100112.47;5072518;28;20619;-89
2021/12/17 05:49:20;;;;;;;16.33;11.20;;;;;;;6.99;94.79;100117.56;5068742;28;20649;-89
2021/12/17 05:51:48;;;;;;;13.73;10.63;;;;;;;7.00;94.40;100125.31;5069110;28;20643;-89
2021/12/17 05:54:18;;;;;;;17.83;13.27;;;;;;;6.99;94.74;100114.97;5073171;28;20642;-90
2021/12/17 05:56:47;;;;;;;15.70;12.10;;;;;;;6.99;94.43;100104.59;5085296;28;21421;-89
2021/12/17 05:59:15;;;;;;;16.83;13.50;;;;;;;6.97;95.11;100117.59;5067649;28;20644;-90
2021/12/17 06:01:44;;;;;;;16.47;12.23;;;;;;;6.95;94.60;100113.38;5082621;28;20630;-89
2021/12/17 06:04:12;;;;;;;18.70;13.50;;;;;;;6.90;94.84;100125.56;5070693;28;20646;-89
2021/12/17 06:06:59;;;;;;;20.50;14.27;;;;;;;6.91;94.71;100122.94;5066827;28;20693;-89
2021/12/17 06:09:27;;;;;;;22.50;13.90;;;;;;;6.92;94.15;100135.03;5076450;28;20686;-90
2021/12/17 06:11:56;;;;;;;22.00;12.50;;;;;;;6.90;93.51;100135.94;5062441;28;20635;-90
2021/12/17 06:14:25;;;;;;;18.73;11.23;;;;;;;6.86;92.66;100127.38;5068704;28;20702;-89
2021/12/17 06:16:53;;;;;;;15.50;10.73;;;;;;;6.81;92.66;100125.75;5091105;28;20705;-89
2021/12/17 06:19:38;;;;;;;11.07;7.70;;;;;;;6.78;92.30;100131.88;5069160;28;21027;-90
2021/12/17 06:22:08;;;;;;;9.10;6.43;;;;;;;6.76;91.28;100127.59;5081592;28;20625;-89
2021/12/17 06:24:40;;;;;;;9.60;6.87;;;;;;;6.80;91.80;100130.09;5066965;28;21274;-90
2021/12/17 06:27:09;;;;;;;10.30;7.50;;;;;;;6.81;91.27;100136.13;5071001;28;20634;-89
2021/12/17 06:29:38;;;;;;;10.30;7.73;;;;;;;6.82;90.94;100153.38;5073238;28;20726;-90
2021/12/17 06:32:11;;;;;;;13.50;9.60;;;;;;;6.71;92.14;100155.34;5086168;28;21317;-90
2021/12/17 06:34:40;;;;;;;11.90;8.40;;;;;;;6.63;91.61;100141.66;5065834;28;21057;-89
2021/12/17 06:37:11;;;;;;;12.73;8.40;;;;;;;6.62;92.07;100138.22;5060054;28;20659;-90
2021/12/17 06:39:42;;;;;;;12.17;8.30;;;;;;;6.62;91.50;100142.56;5083322;28;20635;-89
2021/12/17 06:42:10;;;;;;;19.57;13.57;;;;;;;6.57;91.85;100147.00;5079919;28;20644;-92
2021/12/17 06:44:39;;;;;;;10.67;7.97;;;;;;;6.56;91.73;100150.47;5085002;28;21227;-91
2021/12/17 06:47:13;;;;;;;10.90;8.10;;;;;;;6.56;92.29;100160.84;5065956;28;20632;-93
2021/12/17 06:49:50;;;;;;;11.10;7.90;;;;;;;6.57;92.40;100152.19;5070105;28;20754;-91
2021/12/17 06:59:36;;;;;;;13.33;8.80;;;;;;;6.50;90.94;100142.81;5089884;28;20622;-90
2021/12/17 07:11:37;;;;;;;16.40;10.60;;;;;;;6.15;90.10;100159.91;5068314;28;20787;-91
2021/12/17 07:17:14;;;;;;;12.90;9.40;;;;;;;6.02;89.57;100165.31;5072800;28;20614;-91
2021/12/17 07:22:50;;;;;;;34.97;23.00;;;;;;;6.01;90.53;100158.44;5021798;28;20909;-90
2021/12/17 07:28:24;;;;;;;22.93;15.27;;;;;;;6.06;90.52;100154.88;5085959;28;20640;-91
2021/12/17 07:33:58;;;;;;;31.33;19.10;;;;;;;6.07;92.01;100158.31;5070830;28;20749;-91
2021/12/17 07:36:41;;;;;;;17.70;12.10;;;;;;;6.04;90.58;100153.19;5068030;28;20629;-92
2021/12/17 07:39:11;;;;;;;18.80;11.90;;;;;;;5.96;90.68;100161.09;5064268;28;20742;-92
2021/12/17 07:41:52;;;;;;;18.80;11.87;;;;;;;5.84;89.65;100155.28;5083208;28;21139;-92
2021/12/17 07:44:48;;;;;;;18.30;12.97;;;;;;;5.77;89.32;100164.88;5062318;28;20631;-91
2021/12/17 07:47:37;;;;;;;16.37;10.80;;;;;;;5.78;89.29;100160.56;5072896;28;20633;-90
2021/12/17 07:50:29;;;;;;;14.47;10.70;;;;;;;5.86;89.55;100154.34;5076663;28;21834;-89
2021/12/17 07:53:20;;;;;;;17.80;9.60;;;;;;;6.03;89.59;100154.06;5066986;28;20623;-91
2021/12/17 07:56:04;;;;;;;15.47;9.53;;;;;;;6.20;89.41;100161.50;5084695;28;20635;-90
2021/12/17 07:58:38;;;;;;;30.53;17.50;;;;;;;6.35;89.30;100156.06;5070085;28;20665;-91
2021/12/17 08:01:08;;;;;;;23.37;14.90;;;;;;;6.52;89.29;100164.34;5083518;28;20631;-92
2021/12/17 08:03:37;;;;;;;20.10;13.63;;;;;;;6.67;88.98;100161.47;5079953;28;20641;-92
2021/12/17 08:06:15;;;;;;;34.77;26.23;;;;;;;6.82;88.21;100171.53;5076775;28;20769;-92
2021/12/17 08:09:01;;;;;;;15.90;9.50;;;;;;;6.88;88.66;100159.28;5064534;28;20626;-90
2021/12/17 08:11:32;;;;;;;12.07;7.30;;;;;;;6.95;88.19;100175.59;5082837;28;20651;-89
2021/12/17 08:14:08;;;;;;;13.07;8.33;;;;;;;7.04;88.23;100169.31;5071050;28;20632;-92
2021/12/17 08:16:43;;;;;;;36.40;19.40;;;;;;;7.12;87.40;100170.00;5081583;28;20728;-91
2021/12/17 08:24:57;;;;;;;26.80;14.70;;;;;;;7.34;87.39;100180.78;5072610;28;21277;-92
2021/12/17 08:27:44;;;;;;;16.10;10.70;;;;;;;7.40;86.87;100170.28;5088152;28;20649;-91
2021/12/17 08:30:38;;;;;;;14.17;10.20;;;;;;;7.41;86.96;100166.78;5090592;28;20669;-92
2021/12/17 08:33:21;;;;;;;16.20;10.37;;;;;;;7.44;86.15;100164.94;5086246;28;21370;-89
2021/12/17 08:35:54;;;;;;;11.07;9.03;;;;;;;7.44;86.15;100169.31;5070429;28;20621;-89
2021/12/17 08:38:34;;;;;;;13.37;10.07;;;;;;;7.42;86.46;100163.31;5073761;28;20627;-89
2021/12/17 08:41:10;;;;;;;13.90;10.00;;;;;;;7.39;86.75;100166.81;5088073;28;20640;-89
2021/12/17 08:43:38;;;;;;;14.10;10.90;;;;;;;7.36;85.96;100164.28;5073481;28;20639;-90
2021/12/17 08:46:11;;;;;;;13.30;9.90;;;;;;;7.38;85.06;100178.09;5070627;28;20713;-90
2021/12/17 08:48:58;;;;;;;12.83;9.50;;;;;;;7.38;84.79;100159.94;5081661;28;20969;-90
2021/12/17 08:51:48;;;;;;;15.43;9.97;;;;;;;7.44;85.99;100170.16;5079922;28;20669;-89
2021/12/17 08:54:17;;;;;;;16.17;10.87;;;;;;;7.46;85.29;100167.50;5068622;28;20646;-89
2021/12/17 08:56:48;;;;;;;13.87;12.23;;;;;;;7.43;85.28;100173.66;5069600;28;21007;-89
2021/12/17 08:59:23;;;;;;;13.50;9.87;;;;;;;7.39;86.08;100179.78;5089138;28;20633;-89
2021/12/17 09:02:27;;;;;;;17.80;10.60;;;;;;;7.37;85.99;100181.56;5085884;28;21214;-89
2021/12/17 09:05:12;;;;;;;15.80;11.27;;;;;;;7.37;86.75;100178.13;5070257;28;20640;-89
2021/12/17 09:07:46;;;;;;;15.40;11.10;;;;;;;7.44;87.33;100182.28;5067147;28;20655;-89
2021/12/17 09:10:37;;;;;;;15.73;10.60;;;;;;;7.46;87.05;100191.75;5064298;28;21216;-89
2021/12/17 09:13:07;;;;;;;16.40;12.30;;;;;;;7.50;86.90;100190.78;5068346;28;20658;-89
2021/12/17 09:15:36;;;;;;;16.60;11.63;;;;;;;7.53;87.88;100188.97;5065375;28;20679;-89
2021/12/17 09:18:13;;;;;;;16.17;11.80;;;;;;;7.61;88.09;100186.22;5069513;28;20635;-88
2021/12/17 09:20:51;;;;;;;13.93;11.00;;;;;;;7.65;86.68;100183.50;5069110;28;20650;-89
2021/12/17 09:23:24;;;;;;;16.80;11.60;;;;;;;7.72;86.12;100189.41;5070562;28;20638;-89
2021/12/17 09:25:56;;;;;;;14.47;11.10;;;;;;;7.72;85.37;100194.59;5065183;28;20660;-88
2021/12/17 09:28:26;;;;;;;15.10;10.70;;;;;;;7.69;86.46;100197.25;5069542;28;20631;-89
2021/12/17 09:31:00;;;;;;;12.30;9.43;;;;;;;7.63;86.35;100194.81;5077700;28;20656;-89
2021/12/17 09:33:30;;;;;;;16.63;12.40;;;;;;;7.69;87.11;100194.66;5071649;28;20746;-89
2021/12/17 09:35:58;;;;;;;16.90;11.10;;;;;;;7.82;87.35;100196.06;5079571;28;20629;-89
2021/12/17 09:38:26;;;;;;;16.40;11.50;;;;;;;7.92;87.85;100207.97;5077681;28;21313;-89
2021/12/17 09:40:55;;;;;;;15.90;11.27;;;;;;;8.03;86.68;100201.63;5068234;28;20635;-89
2021/12/17 09:43:23;;;;;;;16.53;12.20;;;;;;;8.09;86.88;100201.47;5071678;28;20673;-89
2021/12/17 09:45:51;;;;;;;16.43;11.33;;;;;;;8.18;87.07;100196.94;5081711;28;20636;-89
2021/12/17 09:48:20;;;;;;;13.30;10.50;;;;;;;8.30;86.63;100191.44;5070259;28;20622;-89
2021/12/17 09:50:52;;;;;;;14.03;10.70;;;;;;;8.41;87.55;100186.78;5075980;28;21247;-89
2021/12/17 09:53:20;;;;;;;14.60;10.90;;;;;;;8.50;87.76;100183.94;5067548;28;20630;-89
2021/12/17 09:55:51;;;;;;;13.43;10.10;;;;;;;8.58;86.43;100188.03;5064822;28;20636;-89
2021/12/17 09:58:22;;;;;;;14.83;11.23;;;;;;;8.67;85.89;100194.75;5075236;28;20626;-89
2021/12/17 10:00:50;;;;;;;15.07;10.03;;;;;;;8.72;86.71;100191.13;5085801;28;20634;-89
2021/12/17 10:03:19;;;;;;;16.63;10.70;;;;;;;8.79;86.12;100186.59;5065973;28;21225;-89
2021/12/17 10:05:47;;;;;;;15.33;11.37;;;;;;;8.88;85.48;100199.38;5078569;28;21467;-89
2021/12/17 10:08:19;;;;;;;13.90;10.40;;;;;;;8.95;85.94;100199.16;5083907;28;20761;-89
2021/12/17 10:10:54;;;;;;;13.30;9.63;;;;;;;9.04;85.63;100199.72;5082341;28;20658;-89
2021/12/17 10:13:24;;;;;;;13.67;9.60;;;;;;;9.12;85.51;100192.56;5100954;28;20636;-89
2021/12/17 10:15:55;;;;;;;13.63;9.93;;;;;;;9.25;85.97;100198.28;5077981;28;20637;-89
2021/12/17 10:18:35;;;;;;;12.50;9.60;;;;;;;9.33;85.95;100196.28;5082648;28;20643;-89
2021/12/17 10:21:06;;;;;;;14.13;10.30;;;;;;;9.37;85.84;100192.69;5065155;28;20634;-89
2021/12/17 10:23:36;;;;;;;14.10;10.40;;;;;;;9.49;85.29;100185.38;5066099;28;21283;-90
2021/12/17 10:26:04;;;;;;;12.57;9.50;;;;;;;9.59;85.35;100173.75;5068763;28;21272;-89
2021/12/17 10:28:33;;;;;;;11.97;9.10;;;;;;;9.67;84.79;100179.59;5085243;28;20646;-89
2021/12/17 10:31:01;;;;;;;12.40;9.23;;;;;;;9.74;84.50;100179.34;5077373;28;21088;-90
2021/12/17 10:33:29;;;;;;;12.47;9.07;;;;;;;9.80;84.45;100186.94;5066402;28;20649;-89
2021/12/17 10:36:03;;;;;;;15.30;12.23;;;;;;;9.88;83.08;100192.78;5081731;28;20638;-89
2021/12/17 10:38:31;;;;;;;13.50;10.33;;;;;;;9.92;83.46;100181.34;5072814;28;20634;-90
2021/12/17 10:41:05;;;;;;;10.50;8.77;;;;;;;9.96;83.44;100176.03;5078279;28;20667;-88
2021/12/17 10:43:37;;;;;;;12.00;8.83;;;;;;;10.02;83.87;100180.19;5065855;28;21289;-89
2021/12/17 10:46:11;;;;;;;10.20;8.03;;;;;;;10.04;81.76;100171.44;5064576;28;20662;-89
2021/12/17 10:48:53;;;;;;;9.43;6.93;;;;;;;10.06;81.57;100169.63;5063462;28;20641;-89
2021/12/17 10:51:45;;;;;;;8.70;6.57;;;;;;;10.06;80.11;100168.78;5070579;28;21084;-90
2021/12/17 10:54:16;;;;;;;7.37;6.40;;;;;;;10.04;80.26;100173.16;5060465;28;21193;-89
2021/12/17 10:56:47;;;;;;;10.13;8.60;;;;;;;9.99;79.59;100175.91;5087148;28;20642;-89
2021/12/17 10:59:18;;;;;;;8.87;6.83;;;;;;;9.94;79.71;100171.78;5098055;28;20722;-89
2021/12/17 11:01:48;;;;;;;7.37;5.53;;;;;;;9.94;80.67;100158.75;5083516;28;20618;-89
2021/12/17 11:04:19;;;;;;;8.43;6.20;;;;;;;9.99;80.59;100162.03;5100267;28;20652;-89
2021/12/17 11:06:53;;;;;;;6.33;5.13;;;;;;;10.05;79.99;100149.66;5065327;28;20755;-89
2021/12/17 11:09:42;;;;;;;8.43;6.60;;;;;;;10.12;80.62;100148.56;5069226;28;21246;-90
2021/12/17 11:12:30;;;;;;;7.43;6.00;;;;;;;10.13;79.38;100142.44;5062464;28;20700;-90
2021/12/17 11:15:17;;;;;;;6.87;6.17;;;;;;;10.11;79.25;100144.22;5084529;28;21038;-90
2021/12/17 11:17:50;;;;;;;8.43;5.80;;;;;;;10.09;79.44;100151.25;5064437;28;20640;-90
2021/12/17 11:20:21;;;;;;;7.30;6.07;;;;;;;10.05;79.08;100154.88;5082550;28;20649;-90
2021/12/17 11:22:51;;;;;;;6.53;5.07;;;;;;;10.06;79.18;100160.97;5068016;28;20737;-90
2021/12/17 11:25:20;;;;;;;7.43;5.80;;;;;;;10.06;78.81;100153.13;5065751;28;20651;-90
2021/12/17 11:27:51;;;;;;;7.50;5.80;;;;;;;10.06;79.31;100153.13;5070819;28;21224;-90
2021/12/17 11:30:21;;;;;;;8.20;6.03;;;;;;;10.07;78.79;100145.25;5079269;28;20623;-90
2021/12/17 11:32:50;;;;;;;7.60;5.90;;;;;;;10.12;79.70;100148.56;5070287;28;20701;-90
2021/12/17 11:35:25;;;;;;;7.83;6.23;;;;;;;10.14;80.17;100133.72;5072398;28;20677;-90
2021/12/17 11:37:55;;;;;;;8.80;6.33;;;;;;;10.14;79.80;100144.13;5069336;28;21259;-89
2021/12/17 11:40:31;;;;;;;6.40;5.27;;;;;;;10.13;80.28;100145.06;5084556;28;20643;-89
2021/12/17 11:43:16;;;;;;;7.63;5.47;;;;;;;10.07;79.12;100152.22;5092664;28;20644;-90
2021/12/17 11:45:45;;;;;;;6.80;5.30;;;;;;;10.04;79.44;100141.88;5094203;28;20631;-89
2021/12/17 11:48:23;;;;;;;12.77;8.93;;;;;;;10.00;79.91;100132.47;5080858;28;20631;-89
2021/12/17 11:51:04;;;;;;;7.07;5.50;;;;;;;10.04;79.71;100126.25;5081508;28;21046;-89
2021/12/17 11:53:33;;;;;;;8.20;5.73;;;;;;;10.04;79.63;100124.50;5068146;28;21263;-89
2021/12/17 11:56:04;;;;;;;7.37;5.90;;;;;;;10.03;79.07;100135.84;5064430;28;20705;-91
2021/12/17 11:58:53;;;;;;;9.37;6.40;;;;;;;9.92;79.63;100132.69;5071236;28;20668;-90
2021/12/17 12:01:51;;;;;;;9.07;6.60;;;;;;;9.83;80.79;100142.56;5064212;28;20750;-88
2021/12/17 12:04:38;;;;;;;8.00;5.70;;;;;;;9.72;80.79;100149.88;5074588;28;20691;-90
2021/12/17 12:07:09;;;;;;;6.50;4.97;;;;;;;9.50;80.68;100142.78;5082672;28;21255;-88
2021/12/17 12:09:56;;;;;;;6.80;5.60;;;;;;;9.51;81.47;100140.13;5080707;28;21207;-89
2021/12/17 12:12:27;;;;;;;7.43;5.23;;;;;;;9.40;81.32;100138.78;5063002;28;20650;-89
2021/12/17 12:15:32;;;;;;;6.70;5.40;;;;;;;9.24;81.50;100127.13;5076751;28;20654;-88
2021/12/17 12:18:18;;;;;;;7.97;5.73;;;;;;;9.20;81.77;100122.91;5066737;28;20671;-89
2021/12/17 12:21:02;;;;;;;7.90;5.73;;;;;;;9.20;81.98;100122.91;5078934;28;21182;-90
2021/12/17 12:23:42;;;;;;;8.83;6.10;;;;;;;9.15;82.47;100116.97;5085278;28;20720;-89
2021/12/17 12:26:25;;;;;;;7.17;5.23;;;;;;;9.03;82.42;100132.97;5096431;28;20736;-89
2021/12/17 12:29:03;;;;;;;7.30;5.28;;;;;;;8.93;83.00;100118.53;5070726;28;20760;-89
2021/12/17 12:31:54;;;;;;;8.43;5.80;;;;;;;8.94;82.67;100133.25;5078609;28;20706;-89
2021/12/17 12:34:29;;;;;;;7.93;5.37;;;;;;;8.91;83.79;100127.28;5082188;28;20654;-89
2021/12/17 12:37:10;;;;;;;7.70;6.23;;;;;;;8.96;83.65;100120.19;5098891;28;20626;-89
2021/12/17 12:39:41;;;;;;;14.40;10.90;;;;;;;8.95;83.10;100121.94;5077128;28;20623;-89
2021/12/17 12:42:16;;;;;;;10.70;7.50;;;;;;;8.79;83.06;100121.56;5082612;28;20630;-90
2021/12/17 12:45:09;;;;;;;9.10;6.87;;;;;;;8.68;84.01;100126.25;5067735;28;20635;-89
2021/12/17 12:47:41;;;;;;;10.93;7.77;;;;;;;8.55;83.40;100125.75;5062212;28;20667;-89
2021/12/17 12:50:12;;;;;;;10.60;8.10;;;;;;;8.51;84.92;100139.72;5068594;28;21289;-89
2021/12/17 12:52:44;;;;;;;11.00;7.70;;;;;;;8.58;84.25;100135.19;5082794;28;20651;-89
2021/12/17 12:55:16;;;;;;;13.50;9.67;;;;;;;8.57;84.62;100134.34;5078284;28;20649;-89
2021/12/17 12:57:47;;;;;;;14.03;10.30;;;;;;;8.62;85.24;100134.22;5062770;28;21246;-89
2021/12/17 13:00:18;;;;;;;13.93;10.37;;;;;;;8.60;84.51;100129.06;5081382;28;20637;-89
2021/12/17 13:02:50;;;;;;;12.77;9.63;;;;;;;8.50;84.75;100116.34;5070110;28;20729;-90
2021/12/17 13:05:20;;;;;;;14.40;10.73;;;;;;;8.48;84.89;100123.34;5065804;28;20633;-90
2021/12/17 13:07:50;;;;;;;13.73;10.43;;;;;;;8.50;84.98;100116.34;5065833;28;20655;-89
2021/12/17 13:10:20;;;;;;;16.13;11.73;;;;;;;8.50;84.12;100122.38;5074615;28;20650;-89
2021/12/17 13:12:51;;;;;;;15.23;10.80;;;;;;;8.55;84.72;100119.66;5083400;28;20669;-89
2021/12/17 13:15:37;;;;;;;13.20;10.30;;;;;;;8.61;84.06;100103.88;5064385;28;20635;-89
2021/12/17 13:21:15;;;;;;;15.73;11.40;;;;;;;8.66;83.98;100099.41;5099569;28;21186;-89
2021/12/17 13:23:49;;;;;;;13.87;10.83;;;;;;;8.72;85.05;100097.50;5068159;28;20667;-88
2021/12/17 13:26:19;;;;;;;16.80;12.37;;;;;;;8.78;83.56;100099.06;5079089;28;20640;-89
2021/12/17 13:29:00;;;;;;;12.53;10.37;;;;;;;8.81;84.77;100106.75;5068820;28;20646;-90
2021/12/17 13:31:35;;;;;;;13.53;10.70;;;;;;;8.85;83.71;100118.81;5084921;28;20617;-86
2021/12/17 13:34:18;;;;;;;14.40;10.27;;;;;;;8.77;84.61;100115.56;5077942;27;21082;-88
2021/12/17 13:36:55;;;;;;;13.73;10.88;;;;;;;8.66;83.16;100117.59;5065327;28;21897;-89
2021/12/17 13:39:25;;;;;;;15.13;11.97;;;;;;;8.54;84.16;100104.97;5096791;28;20212;-89
2021/12/17 13:41:54;;;;;;;14.13;11.63;;;;;;;8.43;83.50;100104.41;5100236;28;20649;-89
2021/12/17 13:44:38;;;;;;;15.00;11.53;;;;;;;8.43;83.88;100094.00;5082362;28;20623;-89
2021/12/17 13:47:12;;;;;;;15.70;11.10;;;;;;;8.49;83.60;100109.44;5081353;28;20625;-89
2021/12/17 13:49:44;;;;;;;14.60;10.80;;;;;;;8.44;83.57;100100.91;5065715;28;20663;-88
2021/12/17 13:52:13;;;;;;;12.57;10.10;;;;;;;8.41;84.58;100100.16;5070048;28;20639;-88
2021/12/17 13:54:44;;;;;;;12.40;10.33;;;;;;;8.33;83.93;100108.16;5063860;28;21057;-89
2021/12/17 13:57:16;;;;;;;13.13;9.90;;;;;;;8.30;84.20;100113.44;5085416;28;20642;-88
2021/12/17 13:59:45;;;;;;;15.60;11.33;;;;;;;8.26;85.86;100114.41;5061898;28;20631;-89
2021/12/17 14:02:15;;;;;;;12.70;10.40;;;;;;;8.30;85.40;100120.38;5079371;28;20626;-89
2021/12/17 14:05:01;;;;;;;15.20;11.50;;;;;;;8.17;84.43;100114.66;5083803;28;20681;-89
2021/12/17 14:07:30;;;;;;;13.52;10.55;;;;;;;8.14;84.26;100117.34;5068539;28;20878;-88
2021/12/17 14:10:01;;;;;;;13.63;10.77;;;;;;;8.11;85.21;100135.59;5078676;28;20298;-87